createdAt,value
2019-05-22T00:00:46.580Z,101962.80
2019-05-22T00:03:19.402Z,101960.14
2019-05-22T00:05:50.355Z,101961.02
2019-05-22T00:08:20.416Z,101968.80
2019-05-22T00:10:50.607Z,101974.78
2019-05-22T00:13:22.975Z,101965.95
2019-05-22T00:15:54.537Z,101962.87
2019-05-22T00:18:26.001Z,101961.20
2019-05-22T00:20:57.146Z,101964.00
2019-05-22T00:23:28.593Z,101962.55
2019-05-22T00:25:58.627Z,101962.09
2019-05-22T00:28:30.457Z,101965.44
2019-05-22T00:31:01.446Z,101964.75
2019-05-22T00:33:31.517Z,101959.41
2019-05-22T00:36:03.301Z,101959.33
2019-05-22T00:38:34.028Z,101964.16
2019-05-22T00:41:07.766Z,101954.97
2019-05-22T00:43:42.449Z,101957.27
2019-05-22T00:46:16.933Z,101953.77
2019-05-22T00:48:48.872Z,101964.61
2019-05-22T00:51:46.776Z,101953.52
2019-05-22T00:54:34.157Z,101949.53
2019-05-22T00:57:41.166Z,101955.97
2019-05-22T01:00:24.384Z,101944.50
2019-05-22T01:02:56.190Z,101946.17
2019-05-22T01:05:27.905Z,101949.43
2019-05-22T01:07:58.090Z,101947.27
2019-05-22T01:10:30.304Z,101948.72
2019-05-22T01:13:04.468Z,101940.13
2019-05-22T01:15:35.707Z,101933.50
2019-05-22T01:18:07.868Z,101930.59
2019-05-22T01:20:40.185Z,101929.28
2019-05-22T01:23:13.838Z,101928.44
2019-05-22T01:25:43.928Z,101930.25
2019-05-22T01:28:15.972Z,101933.50
2019-05-22T01:30:57.885Z,101927.69
2019-05-22T01:33:32.490Z,101921.90
2019-05-22T01:36:19.589Z,101930.11
2019-05-22T01:38:49.628Z,101926.38
2019-05-22T01:41:25.462Z,101923.72
2019-05-22T01:43:56.197Z,101927.00
2019-05-22T01:46:28.033Z,101929.52
2019-05-22T01:49:03.061Z,101925.91
2019-05-22T01:51:34.203Z,101925.91
2019-05-22T01:54:05.804Z,101936.03
2019-05-22T01:56:36.465Z,101934.97
2019-05-22T01:59:08.252Z,101938.08
2019-05-22T02:01:39.959Z,101934.70
2019-05-22T02:04:10.013Z,101934.10
2019-05-22T02:06:41.451Z,101927.72
2019-05-22T02:09:26.890Z,101931.21
2019-05-22T02:12:07.998Z,101924.35
2019-05-22T02:14:41.551Z,101925.91
2019-05-22T02:17:12.108Z,101932.44
2019-05-22T02:19:42.157Z,101926.50
2019-05-22T02:22:15.282Z,101932.19
2019-05-22T02:24:46.133Z,101925.03
2019-05-22T02:27:17.068Z,101921.16
2019-05-22T02:29:47.498Z,101920.80
2019-05-22T02:32:19.217Z,101918.00
2019-05-22T02:34:50.130Z,101912.43
2019-05-22T02:37:22.006Z,101916.00
2019-05-22T02:39:53.488Z,101919.73
2019-05-22T02:42:26.799Z,101911.41
2019-05-22T02:44:57.771Z,101914.15
2019-05-22T02:47:29.606Z,101919.41
2019-05-22T02:50:00.242Z,101915.55
2019-05-22T02:52:30.643Z,101912.78
2019-05-22T02:55:02.078Z,101912.89
2019-05-22T02:57:32.926Z,101917.61
2019-05-22T03:00:03.186Z,101918.25
2019-05-22T03:02:37.681Z,101917.19
2019-05-22T03:05:09.436Z,101911.50
2019-05-22T03:07:39.919Z,101911.83
2019-05-22T03:10:12.198Z,101906.53
2019-05-22T03:12:42.758Z,101910.78
2019-05-22T03:15:14.898Z,101912.37
2019-05-22T03:17:47.390Z,101916.45
2019-05-22T03:20:21.099Z,101907.77
2019-05-22T03:23:34.471Z,101903.67
2019-05-22T03:26:05.505Z,101907.53
2019-05-22T03:28:35.662Z,101907.66
2019-05-22T03:31:06.873Z,101908.61
2019-05-22T03:33:37.173Z,101905.36
2019-05-22T03:36:09.659Z,101897.99
2019-05-22T03:38:41.150Z,101901.61
2019-05-22T03:41:12.057Z,101904.52
2019-05-22T03:43:43.921Z,101903.55
2019-05-22T03:46:22.102Z,101905.83
2019-05-22T03:48:52.220Z,101899.57
2019-05-22T03:51:22.845Z,101903.19
2019-05-22T03:53:52.889Z,101899.69
2019-05-22T03:56:24.170Z,101900.53
2019-05-22T03:58:55.329Z,101897.88
2019-05-22T04:01:26.183Z,101894.75
2019-05-22T04:03:56.784Z,101891.63
2019-05-22T04:06:27.634Z,101889.61
2019-05-22T04:08:57.675Z,101893.12
2019-05-22T04:11:33.238Z,101893.16
2019-05-22T04:14:03.544Z,101888.47
2019-05-22T04:16:34.304Z,101895.73
2019-05-22T04:19:05.215Z,101894.87
2019-05-22T04:21:35.543Z,101891.73
2019-05-22T04:24:05.862Z,101890.17
2019-05-22T04:26:35.982Z,101887.03
2019-05-22T04:29:06.099Z,101892.22
2019-05-22T04:31:51.978Z,101892.11
2019-05-22T04:34:22.372Z,101896.34
2019-05-22T04:36:54.026Z,101892.09
2019-05-22T04:39:27.468Z,101886.44
2019-05-22T04:41:58.828Z,101888.00
2019-05-22T04:44:29.272Z,101884.97
2019-05-22T04:47:00.574Z,101882.80
2019-05-22T04:49:31.110Z,101881.95
2019-05-22T04:52:01.336Z,101886.39
2019-05-22T04:54:31.399Z,101885.56
2019-05-22T04:57:01.724Z,101885.41
2019-05-22T04:59:31.822Z,101887.48
2019-05-22T05:02:02.634Z,101887.86
2019-05-22T05:04:32.749Z,101896.67
2019-05-22T05:07:02.837Z,101897.52
2019-05-22T05:09:33.062Z,101889.77
2019-05-22T05:12:03.178Z,101900.29
2019-05-22T05:14:33.272Z,101892.44
2019-05-22T05:17:04.032Z,101897.28
2019-05-22T05:19:34.448Z,101899.67
2019-05-22T05:22:05.678Z,101901.98
2019-05-22T05:24:35.761Z,101897.98
2019-05-22T05:27:07.507Z,101910.17
2019-05-22T05:29:37.549Z,101908.34
2019-05-22T05:32:08.303Z,101910.72
2019-05-22T05:34:48.785Z,101902.61
2019-05-22T05:37:20.725Z,101910.47
2019-05-22T05:40:31.093Z,101910.94
2019-05-22T05:43:01.204Z,101912.36
2019-05-22T05:45:33.690Z,101907.89
2019-05-22T05:48:05.609Z,101907.05
2019-05-22T05:50:40.038Z,101911.61
2019-05-22T05:53:14.197Z,101911.85
2019-05-22T05:56:14.931Z,101917.89
2019-05-22T05:58:45.495Z,101920.64
2019-05-22T06:01:21.810Z,101918.95
2019-05-22T06:03:52.750Z,101918.71
2019-05-22T06:07:13.500Z,101925.00
2019-05-22T06:09:43.564Z,101925.45
2019-05-22T06:12:14.508Z,101920.25
2019-05-22T06:14:44.581Z,101922.12
2019-05-22T06:17:51.811Z,101921.11
2019-05-22T06:20:23.005Z,101921.96
2019-05-22T06:23:40.739Z,101926.19
2019-05-22T06:26:11.504Z,101934.73
2019-05-22T06:28:42.301Z,101927.44
2019-05-22T06:31:19.915Z,101926.46
2019-05-22T06:33:49.956Z,101930.18
2019-05-22T06:36:21.511Z,101934.77
2019-05-22T06:39:00.762Z,101940.05
2019-05-22T06:41:35.337Z,101945.02
2019-05-22T06:44:43.356Z,101938.48
2019-05-22T06:47:18.362Z,101937.91
2019-05-22T06:50:00.501Z,101938.28
2019-05-22T06:52:30.564Z,101936.52
2019-05-22T06:55:00.631Z,101940.18
2019-05-22T06:57:33.535Z,101940.62
2019-05-22T07:00:14.266Z,101941.06
2019-05-22T07:02:41.275Z,101933.75
2019-05-22T07:05:11.535Z,101938.14
2019-05-22T07:07:42.460Z,101935.55
2019-05-22T07:10:16.002Z,101939.08
2019-05-22T07:12:50.121Z,101935.59
2019-05-22T07:15:46.421Z,101946.67
2019-05-22T07:18:19.776Z,101940.12
2019-05-22T07:20:52.942Z,101933.27
2019-05-22T07:23:26.144Z,101935.47
2019-05-22T07:25:56.682Z,101932.36
2019-05-22T07:28:27.822Z,101930.91
2019-05-22T07:30:57.891Z,101936.33
2019-05-22T07:33:28.101Z,101933.86
2019-05-22T07:36:16.783Z,101929.27
2019-05-22T07:38:30.057Z,101929.27
2019-05-22T07:41:00.421Z,101935.36
2019-05-22T07:43:31.090Z,101933.75
2019-05-22T07:46:01.368Z,101922.75
2019-05-22T07:48:31.553Z,101918.67
2019-05-22T07:51:02.312Z,101916.02
2019-05-22T07:53:33.342Z,101916.02
2019-05-22T07:56:05.192Z,101924.06
2019-05-22T07:58:36.491Z,101931.30
2019-05-22T08:01:07.081Z,101926.45
2019-05-22T08:03:37.373Z,101929.58
2019-05-22T08:06:08.470Z,101925.78
2019-05-22T08:08:38.532Z,101923.30
2019-05-22T08:11:09.486Z,101924.17
2019-05-22T08:13:40.085Z,101923.22
2019-05-22T08:16:10.532Z,101926.71
2019-05-22T08:18:40.610Z,101929.53
2019-05-22T08:21:11.114Z,101930.42
2019-05-22T08:23:41.154Z,101928.30
2019-05-22T08:26:13.031Z,101930.41
2019-05-22T08:28:43.159Z,101925.74
2019-05-22T08:31:15.803Z,101923.04
2019-05-22T08:33:45.906Z,101931.56
2019-05-22T08:36:15.954Z,101930.97
2019-05-22T08:38:46.207Z,101924.59
2019-05-22T08:41:16.828Z,101926.17
2019-05-22T08:44:13.719Z,101926.58
2019-05-22T08:46:23.021Z,101927.00
2019-05-22T08:48:53.109Z,101927.38
2019-05-22T08:51:23.224Z,101918.06
2019-05-22T08:53:53.292Z,101916.42
2019-05-22T08:56:23.359Z,101915.44
2019-05-22T08:58:54.083Z,101913.45
2019-05-22T09:01:24.421Z,101913.01
2019-05-22T09:03:54.674Z,101907.86
2019-05-22T09:06:24.796Z,101915.67
2019-05-22T09:08:54.900Z,101918.06
2019-05-22T09:11:24.968Z,101915.11
2019-05-22T09:13:55.093Z,101913.11
2019-05-22T09:16:25.526Z,101903.76
2019-05-22T09:18:55.584Z,101907.81
2019-05-22T09:21:26.410Z,101912.86
2019-05-22T09:23:56.670Z,101908.02
2019-05-22T09:26:27.530Z,101915.06
2019-05-22T09:28:57.654Z,101899.14
2019-05-22T09:31:27.738Z,101905.53
2019-05-22T09:33:57.862Z,101907.58
2019-05-22T09:36:27.911Z,101898.97
2019-05-22T09:38:58.402Z,101894.16
2019-05-22T09:41:28.541Z,101892.48
2019-05-22T09:43:58.766Z,101896.19
2019-05-22T09:46:29.233Z,101897.19
2019-05-22T09:48:59.558Z,101892.48
2019-05-22T09:51:29.612Z,101891.47
2019-05-22T09:56:28.555Z,101883.41
2019-05-22T09:58:58.857Z,101885.09
2019-05-22T10:01:29.140Z,101877.02
2019-05-22T10:03:59.199Z,101875.33
2019-05-22T10:06:29.309Z,101873.11
2019-05-22T10:08:59.396Z,101873.95
2019-05-22T10:11:30.402Z,101866.51
2019-05-22T10:14:01.708Z,101866.28
2019-05-22T10:16:31.778Z,101865.41
2019-05-22T10:19:01.880Z,101863.31
2019-05-22T10:21:32.037Z,101858.19
2019-05-22T10:24:02.088Z,101859.18
2019-05-22T10:26:32.234Z,101858.41
2019-05-22T10:29:02.627Z,101855.61
2019-05-22T10:31:32.862Z,101862.56
2019-05-22T10:34:02.913Z,101855.72
2019-05-22T10:36:33.310Z,101858.30
2019-05-22T10:39:05.249Z,101854.19
2019-05-22T10:41:35.419Z,101852.33
2019-05-22T10:44:06.305Z,101850.06
2019-05-22T10:46:36.870Z,101851.60
2019-05-22T10:49:06.913Z,101857.45
2019-05-22T10:51:36.978Z,101850.47
2019-05-22T10:54:07.052Z,101856.09
2019-05-22T10:56:37.101Z,101851.95
2019-05-22T10:59:07.840Z,101856.71
2019-05-22T11:01:38.192Z,101853.36
2019-05-22T11:04:08.225Z,101850.02
2019-05-22T11:06:38.867Z,101846.77
2019-05-22T11:09:09.840Z,101847.86
2019-05-22T11:11:40.467Z,101852.81
2019-05-22T11:14:11.278Z,101848.90
2019-05-22T11:16:42.304Z,101850.25
2019-05-22T11:19:12.343Z,101847.50
2019-05-22T11:21:42.539Z,101840.63
2019-05-22T11:24:12.860Z,101838.83
2019-05-22T11:26:42.886Z,101843.14
2019-05-22T11:29:13.121Z,101850.28
2019-05-22T11:31:43.277Z,101850.16
2019-05-22T11:34:13.400Z,101847.56
2019-05-22T11:36:43.439Z,101846.96
2019-05-22T11:39:16.982Z,101843.23
2019-05-22T11:41:47.254Z,101852.36
2019-05-22T11:44:17.635Z,101832.83
2019-05-22T11:46:47.853Z,101831.71
2019-05-22T11:49:17.914Z,101833.17
2019-05-22T11:51:47.963Z,101828.03
2019-05-22T11:54:18.028Z,101828.59
2019-05-22T11:56:48.066Z,101835.42
2019-05-22T11:59:18.420Z,101830.24
2019-05-22T12:01:48.457Z,101832.41
2019-05-22T12:04:18.595Z,101828.77
2019-05-22T12:06:48.717Z,101828.10
2019-05-22T12:09:18.851Z,101830.83
2019-05-22T12:11:49.032Z,101829.47
2019-05-22T12:14:19.879Z,101818.15
2019-05-22T12:16:53.020Z,101814.47
2019-05-22T12:19:22.269Z,101809.71
2019-05-22T12:21:52.335Z,101805.65
2019-05-22T12:24:28.606Z,101812.47
2019-05-22T12:26:54.475Z,101808.58
2019-05-22T12:29:24.555Z,101811.80
2019-05-22T12:31:54.857Z,101805.16
2019-05-22T12:34:24.988Z,101809.06
2019-05-22T12:36:55.067Z,101806.94
2019-05-22T12:39:25.119Z,101811.87
2019-05-22T12:41:55.361Z,101816.99
2019-05-22T12:44:25.661Z,101812.95
2019-05-22T12:46:55.706Z,101811.88
2019-05-22T12:49:26.284Z,101817.59
2019-05-22T12:51:56.663Z,101817.97
2019-05-22T12:54:43.407Z,101815.55
2019-05-22T12:56:58.568Z,101818.90
2019-05-22T12:59:28.923Z,101819.17
2019-05-22T13:01:59.034Z,101817.52
2019-05-22T13:04:29.456Z,101824.39
2019-05-22T13:07:00.110Z,101812.00
2019-05-22T13:09:30.138Z,101807.55
2019-05-22T13:12:00.385Z,101800.68
2019-05-22T13:14:30.483Z,101806.02
2019-05-22T13:17:00.959Z,101809.62
2019-05-22T13:19:31.898Z,101800.21
2019-05-22T13:22:02.494Z,101800.94
2019-05-22T13:24:33.427Z,101798.28
2019-05-22T13:27:05.269Z,101799.31
2019-05-22T13:29:36.157Z,101800.16
2019-05-22T13:32:06.778Z,101792.94
2019-05-22T13:34:37.019Z,101797.84
2019-05-22T13:37:08.337Z,101792.66
2019-05-22T13:39:38.460Z,101790.59
2019-05-22T13:42:08.500Z,101787.03
2019-05-22T13:44:38.738Z,101786.63
2019-05-22T13:47:08.887Z,101783.49
2019-05-22T13:49:39.211Z,101780.62
2019-05-22T13:52:09.269Z,101781.38
2019-05-22T13:54:40.126Z,101778.13
2019-05-22T13:57:10.255Z,101782.50
2019-05-22T13:59:40.314Z,101783.52
2019-05-22T14:02:10.364Z,101780.75
2019-05-22T14:04:41.449Z,101778.66
2019-05-22T14:07:11.684Z,101782.34
2019-05-22T14:09:42.050Z,101773.34
2019-05-22T14:12:12.463Z,101775.96
2019-05-22T14:14:42.543Z,101773.41
2019-05-22T14:17:12.621Z,101776.06
2019-05-22T14:19:42.749Z,101768.78
2019-05-22T14:22:13.790Z,101771.27
2019-05-22T14:24:43.840Z,101771.66
2019-05-22T14:27:13.909Z,101763.94
2019-05-22T14:29:44.050Z,101762.73
2019-05-22T14:32:14.123Z,101764.32
2019-05-22T14:34:44.518Z,101754.65
2019-05-22T14:37:14.560Z,101758.27
2019-05-22T14:39:44.685Z,101751.63
2019-05-22T14:42:15.530Z,101749.62
2019-05-22T14:44:45.637Z,101746.92
2019-05-22T14:47:16.698Z,101749.75
2019-05-22T14:49:46.920Z,101744.69
2019-05-22T14:52:17.267Z,101742.59
2019-05-22T14:54:47.303Z,101743.28
2019-05-22T14:57:18.357Z,101743.61
2019-05-22T14:59:48.411Z,101744.59
2019-05-22T15:02:18.620Z,101746.45
2019-05-22T15:04:49.286Z,101739.13
2019-05-22T15:07:19.314Z,101731.31
2019-05-22T15:09:49.871Z,101741.83
2019-05-22T15:12:19.925Z,101746.00
2019-05-22T15:14:50.954Z,101734.89
2019-05-22T15:17:31.923Z,101731.23
2019-05-22T15:19:52.845Z,101734.44
2019-05-22T15:22:22.961Z,101738.30
2019-05-22T15:24:53.204Z,101736.66
2019-05-22T15:27:24.197Z,101728.63
2019-05-22T15:29:54.233Z,101730.64
2019-05-22T15:32:24.392Z,101731.77
2019-05-22T15:34:54.605Z,101730.16
2019-05-22T15:37:25.397Z,101724.11
2019-05-22T15:39:56.570Z,101725.78
2019-05-22T15:42:38.242Z,101730.72
2019-05-22T15:45:10.921Z,101729.59
2019-05-22T15:47:54.892Z,101728.39
2019-05-22T15:50:15.777Z,101726.92
2019-05-22T15:52:51.314Z,101724.59
2019-05-22T15:55:21.866Z,101724.62
2019-05-22T15:57:51.935Z,101720.55
2019-05-22T16:00:24.456Z,101715.82
2019-05-22T16:02:54.513Z,101719.80
2019-05-22T16:05:24.831Z,101727.13
2019-05-22T16:07:55.373Z,101723.39
2019-05-22T16:10:26.190Z,101719.38
2019-05-22T16:12:56.707Z,101716.44
2019-05-22T16:15:26.831Z,101718.63
2019-05-22T16:18:10.980Z,101712.97
2019-05-22T16:20:31.241Z,101721.84
2019-05-22T16:23:01.717Z,101714.20
2019-05-22T16:25:32.326Z,101714.56
2019-05-22T16:28:02.867Z,101716.48
2019-05-22T16:30:33.302Z,101712.61
2019-05-22T16:33:03.598Z,101713.72
2019-05-22T16:35:33.819Z,101714.25
2019-05-22T16:38:04.459Z,101714.77
2019-05-22T16:40:34.561Z,101711.41
2019-05-22T16:43:04.891Z,101714.45
2019-05-22T16:45:37.043Z,101719.48
2019-05-22T16:48:07.906Z,101717.81
2019-05-22T16:50:38.929Z,101713.44
2019-05-22T16:53:10.224Z,101718.91
2019-05-22T16:55:40.336Z,101719.19
2019-05-22T16:58:10.562Z,101714.72
2019-05-22T17:00:41.257Z,101714.05
2019-05-22T17:03:11.542Z,101706.66
2019-05-22T17:05:41.622Z,101701.33
2019-05-22T17:08:11.810Z,101700.92
2019-05-22T17:10:41.886Z,101704.22
2019-05-22T17:13:12.887Z,101696.42
2019-05-22T17:15:42.970Z,101704.48
2019-05-22T17:18:13.635Z,101703.48
2019-05-22T17:20:44.832Z,101699.50
2019-05-22T17:23:14.874Z,101696.50
2019-05-22T17:25:45.361Z,101701.45
2019-05-22T17:28:16.347Z,101693.59
2019-05-22T17:30:46.406Z,101697.64
2019-05-22T17:33:16.542Z,101696.96
2019-05-22T17:35:46.769Z,101698.91
2019-05-22T17:38:17.020Z,101690.51
2019-05-22T17:40:47.301Z,101700.92
2019-05-22T17:43:17.725Z,101699.30
2019-05-22T17:45:47.853Z,101697.53
2019-05-22T17:48:20.207Z,101698.56
2019-05-22T17:50:50.296Z,101701.10
2019-05-22T17:53:20.914Z,101701.55
2019-05-22T17:55:51.295Z,101698.42
2019-05-22T17:58:24.492Z,101697.45
2019-05-22T18:00:54.109Z,101699.69
2019-05-22T18:03:24.433Z,101703.44
2019-05-22T18:05:54.509Z,101704.13
2019-05-22T18:08:24.733Z,101699.50
2019-05-22T18:10:55.266Z,101702.52
2019-05-22T18:13:25.393Z,101697.14
2019-05-22T18:15:55.937Z,101702.19
2019-05-22T18:18:25.991Z,101696.81
2019-05-22T18:20:56.542Z,101700.22
2019-05-22T18:23:26.579Z,101699.28
2019-05-22T18:25:56.665Z,101703.66
2019-05-22T18:28:27.086Z,101703.66
2019-05-22T18:30:57.159Z,101705.01
2019-05-22T18:33:27.205Z,101695.47
2019-05-22T18:35:57.261Z,101698.48
2019-05-22T18:38:29.069Z,101692.58
2019-05-22T18:41:00.082Z,101689.22
2019-05-22T18:43:30.323Z,101691.91
2019-05-22T18:46:00.398Z,101697.65
2019-05-22T18:48:33.017Z,101700.64
2019-05-22T18:51:02.307Z,101699.62
2019-05-22T18:53:32.538Z,101690.26
2019-05-22T18:56:10.215Z,101697.68
2019-05-22T18:58:38.888Z,101695.00
2019-05-22T19:01:08.957Z,101689.62
2019-05-22T19:03:39.075Z,101690.66
2019-05-22T19:06:09.146Z,101687.50
2019-05-22T19:08:39.745Z,101690.38
2019-05-22T19:11:09.812Z,101699.50
2019-05-22T19:13:39.865Z,101693.12
2019-05-22T19:16:09.955Z,101693.84
2019-05-22T19:18:40.029Z,101692.64
2019-05-22T19:21:10.303Z,101696.20
2019-05-22T19:23:40.491Z,101691.84
2019-05-22T19:26:10.577Z,101692.68
2019-05-22T19:28:43.818Z,101695.70
2019-05-22T19:31:12.741Z,101700.88
2019-05-22T19:33:42.846Z,101692.76
2019-05-22T19:36:12.985Z,101701.09
2019-05-22T19:38:43.017Z,101703.09
2019-05-22T19:41:13.085Z,101699.88
2019-05-22T19:43:43.225Z,101699.50
2019-05-22T19:46:13.580Z,101704.31
2019-05-22T19:48:43.898Z,101712.50
2019-05-22T19:51:13.968Z,101716.33
2019-05-22T19:53:46.379Z,101714.25
2019-05-22T19:56:16.973Z,101711.33
2019-05-22T19:58:47.040Z,101718.75
2019-05-22T20:01:18.044Z,101715.97
2019-05-22T20:03:48.450Z,101711.72
2019-05-22T20:06:18.661Z,101716.66
2019-05-22T20:08:48.720Z,101719.11
2019-05-22T20:11:18.789Z,101710.58
2019-05-22T20:13:49.220Z,101717.70
2019-05-22T20:16:19.460Z,101720.84
2019-05-22T20:18:49.521Z,101719.19
2019-05-22T20:21:19.650Z,101716.09
2019-05-22T20:23:49.815Z,101712.99
2019-05-22T20:26:20.365Z,101716.58
2019-05-22T20:28:50.545Z,101717.28
2019-05-22T20:31:20.739Z,101717.48
2019-05-22T20:33:50.888Z,101712.92
2019-05-22T20:36:20.971Z,101718.61
2019-05-22T20:38:51.009Z,101713.42
2019-05-22T20:41:21.248Z,101713.12
2019-05-22T20:43:51.797Z,101718.48
2019-05-22T20:46:22.591Z,101717.28
2019-05-22T20:48:52.622Z,101721.45
2019-05-22T20:51:23.466Z,101713.57
2019-05-22T20:53:54.944Z,101718.20
2019-05-22T20:56:27.731Z,101710.39
2019-05-22T20:58:58.241Z,101708.95
2019-05-22T21:01:28.576Z,101717.30
2019-05-22T21:03:59.574Z,101706.34
2019-05-22T21:06:30.024Z,101711.86
2019-05-22T21:09:00.110Z,101709.55
2019-05-22T21:11:30.146Z,101708.70
2019-05-22T21:14:00.482Z,101703.63
2019-05-22T21:16:30.569Z,101708.44
2019-05-22T21:19:01.409Z,101705.19
2019-05-22T21:21:31.628Z,101709.36
2019-05-22T21:24:09.893Z,101712.16
2019-05-22T21:26:33.847Z,101711.95
2019-05-22T21:29:04.377Z,101710.39
2019-05-22T21:31:34.429Z,101716.17
2019-05-22T21:34:06.212Z,101714.66
2019-05-22T21:36:37.051Z,101716.77
2019-05-22T21:39:08.730Z,101709.65
2019-05-22T21:41:38.778Z,101714.00
2019-05-22T21:44:10.049Z,101711.58
2019-05-22T21:46:42.015Z,101716.64
2019-05-22T21:49:12.351Z,101711.77
2019-05-22T21:51:42.469Z,101714.97
2019-05-22T21:54:13.189Z,101713.80
2019-05-22T21:56:43.570Z,101711.19
2019-05-22T21:59:14.172Z,101713.63
2019-05-22T22:01:56.706Z,101712.16
2019-05-22T22:04:29.238Z,101712.16
2019-05-22T22:06:59.556Z,101704.46
2019-05-22T22:09:30.582Z,101709.03
2019-05-22T22:12:00.646Z,101709.03
2019-05-22T22:14:30.797Z,101705.10
2019-05-22T22:17:02.491Z,101703.55
2019-05-22T22:19:34.294Z,101703.55
2019-05-22T22:22:04.421Z,101703.55
2019-05-22T22:24:34.577Z,101711.28
2019-05-22T22:27:06.558Z,101708.46
2019-05-22T22:29:37.554Z,101711.94
2019-05-22T22:32:10.599Z,101712.70
2019-05-22T22:34:47.526Z,101704.48
2019-05-22T22:37:19.259Z,101704.59
2019-05-22T22:39:54.559Z,101698.02
2019-05-22T22:42:27.245Z,101696.02
2019-05-22T22:44:59.771Z,101692.20
2019-05-22T22:47:40.059Z,101691.77
2019-05-22T22:50:11.502Z,101692.13
2019-05-22T22:52:42.622Z,101688.58
2019-05-22T22:55:12.978Z,101684.00
2019-05-22T22:57:43.023Z,101678.36
2019-05-22T23:00:15.065Z,101680.34
2019-05-22T23:02:46.087Z,101685.61
2019-05-22T23:05:16.137Z,101684.13
2019-05-22T23:07:47.445Z,101678.94
2019-05-22T23:10:17.587Z,101685.13
2019-05-22T23:12:47.637Z,101682.95
2019-05-22T23:15:18.920Z,101687.78
2019-05-22T23:17:49.015Z,101684.68
2019-05-22T23:20:18.018Z,101683.47
2019-05-22T23:22:47.596Z,101680.61
2019-05-22T23:25:18.505Z,101684.11
2019-05-22T23:27:48.600Z,101678.64
2019-05-22T23:30:18.669Z,101678.48
2019-05-22T23:32:48.750Z,101683.95
2019-05-22T23:35:19.044Z,101695.58
2019-05-22T23:37:49.322Z,101691.37
2019-05-22T23:40:25.556Z,101686.84
2019-05-22T23:42:55.841Z,101681.81
2019-05-22T23:45:26.255Z,101674.13
2019-05-22T23:48:16.817Z,101667.83
2019-05-22T23:50:49.405Z,101676.84
2019-05-22T23:53:21.263Z,101680.59
2019-05-22T23:55:51.282Z,101673.47
2019-05-22T23:58:23.026Z,101669.61
